createdAt,value
2022-09-27T00:00:31.490Z,6.63
2022-09-27T00:02:58.244Z,5.63
2022-09-27T00:05:24.979Z,5.80
2022-09-27T00:07:51.675Z,6.20
2022-09-27T00:10:19.440Z,7.18
2022-09-27T00:12:46.239Z,7.15
2022-09-27T00:15:13.082Z,6.10
2022-09-27T00:17:40.588Z,5.93
2022-09-27T00:20:08.420Z,6.03
2022-09-27T00:22:35.555Z,6.55
2022-09-27T00:25:05.579Z,5.80
2022-09-27T00:27:32.189Z,7.00
2022-09-27T00:29:58.852Z,5.80
2022-09-27T00:32:25.467Z,6.28
2022-09-27T00:34:52.133Z,6.40
2022-09-27T00:37:18.695Z,5.78
2022-09-27T00:39:45.296Z,6.07
2022-09-27T00:42:12.731Z,6.30
2022-09-27T00:44:39.709Z,5.97
2022-09-27T00:47:36.044Z,5.80
2022-09-27T00:50:17.328Z,5.10
2022-09-27T00:53:17.858Z,5.68
2022-09-27T00:55:55.871Z,5.80
2022-09-27T00:58:28.538Z,5.00
2022-09-27T01:01:00.541Z,5.05
2022-09-27T01:03:39.022Z,5.78
2022-09-27T01:06:08.202Z,5.22
2022-09-27T01:08:35.782Z,6.05
2022-09-27T01:11:11.451Z,5.40
2022-09-27T01:13:54.306Z,5.80
2022-09-27T01:16:29.875Z,5.43
2022-09-27T01:19:27.766Z,5.55
2022-09-27T01:22:23.903Z,5.68
2022-09-27T01:25:05.718Z,5.78
2022-09-27T01:28:02.267Z,4.95
2022-09-27T01:30:43.271Z,5.20
2022-09-27T01:33:22.491Z,5.07
2022-09-27T01:36:17.144Z,5.95
2022-09-27T01:39:14.544Z,6.07
2022-09-27T01:41:51.270Z,6.47
2022-09-27T01:44:35.167Z,6.13
2022-09-27T01:47:05.239Z,5.03
2022-09-27T01:49:47.548Z,4.68
2022-09-27T01:52:19.609Z,5.60
2022-09-27T01:54:52.904Z,4.88
2022-09-27T01:57:25.388Z,5.68
2022-09-27T02:00:01.405Z,5.20
2022-09-27T02:02:31.067Z,7.05
2022-09-27T02:07:34.898Z,5.07
2022-09-27T02:10:12.911Z,4.53
2022-09-27T02:12:57.336Z,4.68
2022-09-27T02:15:26.445Z,4.60
2022-09-27T02:18:01.443Z,4.50
2022-09-27T02:20:43.865Z,4.93
2022-09-27T02:23:31.343Z,4.97
2022-09-27T02:26:05.017Z,4.20
2022-09-27T02:28:53.465Z,5.20
2022-09-27T02:31:20.888Z,4.57
2022-09-27T02:33:56.321Z,3.72
2022-09-27T02:36:22.976Z,4.30
2022-09-27T02:38:49.821Z,3.83
2022-09-27T02:41:21.507Z,3.78
2022-09-27T02:43:52.706Z,4.10
2022-09-27T02:46:38.134Z,3.72
2022-09-27T02:49:25.842Z,2.60
2022-09-27T02:52:03.878Z,3.30
2022-09-27T02:54:40.934Z,2.92
2022-09-27T02:57:35.009Z,1.80
2022-09-27T03:00:07.526Z,2.35
2022-09-27T03:02:51.393Z,2.65
2022-09-27T03:05:22.370Z,1.48
2022-09-27T03:07:49.625Z,1.35
2022-09-27T03:10:20.223Z,1.42
2022-09-27T03:12:47.169Z,1.45
2022-09-27T03:15:13.832Z,1.00
2022-09-27T03:17:40.475Z,0.95
2022-09-27T03:20:08.844Z,1.20
2022-09-27T03:22:35.695Z,1.08
2022-09-27T03:25:02.442Z,1.10
2022-09-27T03:27:29.035Z,1.13
2022-09-27T03:29:55.720Z,1.10
2022-09-27T03:32:22.285Z,1.40
2022-09-27T03:34:48.998Z,1.23
2022-09-27T03:37:15.607Z,1.48
2022-09-27T03:39:42.196Z,1.45
2022-09-27T03:42:08.797Z,1.33
2022-09-27T03:44:35.548Z,1.58
2022-09-27T03:47:02.192Z,1.80
2022-09-27T03:49:29.108Z,1.50
2022-09-27T03:51:55.658Z,1.33
2022-09-27T03:54:22.289Z,1.60
2022-09-27T03:56:48.845Z,1.40
2022-09-27T03:59:15.623Z,1.17
2022-09-27T04:01:43.303Z,1.17
2022-09-27T04:04:11.437Z,1.27
2022-09-27T04:06:38.122Z,1.50
2022-09-27T04:09:04.984Z,1.50
2022-09-27T04:11:31.637Z,1.80
2022-09-27T04:13:58.750Z,1.75
2022-09-27T04:16:25.580Z,1.20
2022-09-27T04:18:52.401Z,1.42
2022-09-27T04:21:20.470Z,1.35
2022-09-27T04:23:47.090Z,1.50
2022-09-27T04:26:13.846Z,1.17
2022-09-27T04:28:40.747Z,1.40
2022-09-27T04:31:07.602Z,1.17
2022-09-27T04:33:34.458Z,1.40
2022-09-27T04:36:19.767Z,1.30
2022-09-27T04:38:46.337Z,2.25
2022-09-27T04:41:13.728Z,1.30
2022-09-27T04:43:40.394Z,1.50
2022-09-27T04:46:07.286Z,2.15
2022-09-27T04:48:34.479Z,1.30
2022-09-27T04:51:02.806Z,1.60
2022-09-27T04:53:30.082Z,1.20
2022-09-27T04:55:57.086Z,1.23
2022-09-27T04:58:24.282Z,1.48
2022-09-27T05:00:52.349Z,1.40
2022-09-27T05:03:19.445Z,1.75
2022-09-27T05:05:46.037Z,1.50
2022-09-27T05:08:12.670Z,1.23
2022-09-27T05:10:39.527Z,1.27
2022-09-27T05:13:06.572Z,1.00
2022-09-27T05:15:34.323Z,1.08
2022-09-27T05:18:00.975Z,1.35
2022-09-27T05:20:27.696Z,1.25
2022-09-27T05:22:54.615Z,1.52
2022-09-27T05:25:21.239Z,1.63
2022-09-27T05:27:47.951Z,1.08
2022-09-27T05:30:14.534Z,1.15
2022-09-27T05:32:44.178Z,1.40
2022-09-27T05:35:11.125Z,0.98
2022-09-27T05:37:38.510Z,0.95
2022-09-27T05:40:22.369Z,0.90
2022-09-27T05:42:53.782Z,1.50
2022-09-27T05:45:22.591Z,0.98
2022-09-27T05:47:54.049Z,1.50
2022-09-27T05:50:20.661Z,0.80
2022-09-27T05:52:48.112Z,0.88
2022-09-27T05:55:15.266Z,1.23
2022-09-27T05:57:42.025Z,0.93
2022-09-27T06:00:10.320Z,1.10
2022-09-27T06:02:37.033Z,1.20
2022-09-27T06:05:03.868Z,1.30
2022-09-27T06:07:32.108Z,1.23
2022-09-27T06:09:58.786Z,1.25
2022-09-27T06:12:25.417Z,1.67
2022-09-27T06:14:52.866Z,2.15
2022-09-27T06:17:19.620Z,2.10
2022-09-27T06:19:47.647Z,1.88
2022-09-27T06:22:14.468Z,2.30
2022-09-27T06:24:41.672Z,1.73
2022-09-27T06:27:08.289Z,1.95
2022-09-27T06:29:35.214Z,1.90
2022-09-27T06:32:02.015Z,1.85
2022-09-27T06:34:28.670Z,2.20
2022-09-27T06:36:55.250Z,2.30
2022-09-27T06:39:21.844Z,1.83
2022-09-27T06:41:48.460Z,2.38
2022-09-27T06:44:15.032Z,2.00
2022-09-27T06:46:42.680Z,2.05
2022-09-27T06:49:09.372Z,2.35
2022-09-27T06:51:36.433Z,1.70
2022-09-27T06:54:02.998Z,1.98
2022-09-27T06:56:29.612Z,1.90
2022-09-27T06:59:14.887Z,3.00
2022-09-27T07:01:41.724Z,2.38
2022-09-27T07:04:11.158Z,3.92
2022-09-27T07:06:37.868Z,3.42
2022-09-27T07:09:06.616Z,1.90
2022-09-27T07:11:36.809Z,2.05
2022-09-27T07:14:04.662Z,2.30
2022-09-27T07:16:31.704Z,1.63
2022-09-27T07:18:58.340Z,1.50
2022-09-27T07:21:24.963Z,1.42
2022-09-27T07:23:51.563Z,1.00
2022-09-27T07:26:18.276Z,1.00
2022-09-27T07:28:46.014Z,2.40
2022-09-27T07:31:12.901Z,1.58
2022-09-27T07:33:43.267Z,0.80
2022-09-27T07:36:11.367Z,0.90
2022-09-27T07:38:38.118Z,2.33
2022-09-27T07:41:14.676Z,0.98
2022-09-27T07:43:44.489Z,0.88
2022-09-27T07:48:37.872Z,1.10
2022-09-27T07:51:07.611Z,0.65
2022-09-27T07:56:00.955Z,0.80
2022-09-27T07:58:28.108Z,0.60
2022-09-27T08:00:56.771Z,0.73
2022-09-27T08:03:23.469Z,1.08
2022-09-27T08:05:50.075Z,1.00
2022-09-27T08:08:17.192Z,0.68
2022-09-27T08:10:47.047Z,0.75
2022-09-27T08:13:16.135Z,0.57
2022-09-27T08:15:42.794Z,1.10
2022-09-27T08:18:09.619Z,1.48
2022-09-27T08:20:36.767Z,0.93
2022-09-27T08:23:04.263Z,1.23
2022-09-27T08:25:31.223Z,0.68
2022-09-27T08:27:59.040Z,0.98
2022-09-27T08:30:26.489Z,0.88
2022-09-27T08:32:57.138Z,0.70
2022-09-27T08:35:23.884Z,0.77
2022-09-27T08:37:59.705Z,1.30
2022-09-27T08:40:38.197Z,0.75
2022-09-27T08:43:17.161Z,0.50
2022-09-27T08:45:52.946Z,0.80
2022-09-27T08:48:19.674Z,0.63
2022-09-27T08:50:48.093Z,0.70
2022-09-27T08:53:14.638Z,0.70
2022-09-27T08:55:58.922Z,1.00
2022-09-27T08:58:46.490Z,0.63
2022-09-27T09:01:18.297Z,0.70
2022-09-27T09:03:51.610Z,0.60
2022-09-27T09:06:28.998Z,0.63
2022-09-27T09:09:33.207Z,0.93
2022-09-27T09:12:47.937Z,1.67
2022-09-27T09:15:56.798Z,0.68
2022-09-27T09:18:35.749Z,0.80
2022-09-27T09:21:25.618Z,0.68
2022-09-27T09:24:13.612Z,1.30
2022-09-27T09:26:47.332Z,0.60
2022-09-27T09:29:39.815Z,0.90
2022-09-27T09:32:25.597Z,1.08
2022-09-27T09:34:57.877Z,0.70
2022-09-27T09:37:39.745Z,1.65
2022-09-27T09:40:09.316Z,0.80
2022-09-27T09:42:42.917Z,0.70
2022-09-27T09:45:21.059Z,0.80
2022-09-27T09:48:12.048Z,0.82
2022-09-27T09:50:50.721Z,0.70
2022-09-27T09:53:36.672Z,0.70
2022-09-27T09:56:07.843Z,0.80
2022-09-27T09:58:49.437Z,0.70
2022-09-27T10:01:22.343Z,0.88
2022-09-27T10:03:49.349Z,0.70
2022-09-27T10:06:17.837Z,0.75
2022-09-27T10:08:44.876Z,0.70
2022-09-27T10:11:25.607Z,1.10
2022-09-27T10:13:53.303Z,1.33
2022-09-27T10:16:21.428Z,0.60
2022-09-27T10:18:50.824Z,0.68
2022-09-27T10:21:25.625Z,0.60
2022-09-27T10:24:17.768Z,1.00
2022-09-27T10:26:47.182Z,0.77
2022-09-27T10:29:16.988Z,0.90
2022-09-27T10:31:47.760Z,0.50
2022-09-27T10:34:32.804Z,0.73
2022-09-27T10:37:17.464Z,0.73
2022-09-27T10:39:46.343Z,0.80
2022-09-27T10:42:38.529Z,0.57
2022-09-27T10:45:22.888Z,0.40
2022-09-27T10:47:49.711Z,0.52
2022-09-27T10:50:45.953Z,0.47
2022-09-27T10:53:19.086Z,0.52
2022-09-27T10:55:49.595Z,0.57
2022-09-27T10:58:37.986Z,0.60
2022-09-27T11:01:08.670Z,0.60
2022-09-27T11:03:57.783Z,0.85
2022-09-27T11:06:24.347Z,0.60
2022-09-27T11:08:52.924Z,0.82
2022-09-27T11:11:28.282Z,0.60
2022-09-27T11:14:08.250Z,0.57
2022-09-27T11:17:16.083Z,0.90
2022-09-27T11:20:15.150Z,0.70
2022-09-27T11:23:11.874Z,1.15
2022-09-27T11:25:58.067Z,0.70
2022-09-27T11:28:43.704Z,0.55
2022-09-27T11:31:25.644Z,0.50
2022-09-27T11:34:21.110Z,0.50
2022-09-27T11:37:15.525Z,0.80
2022-09-27T11:39:54.242Z,0.63
2022-09-27T11:42:49.648Z,0.65
2022-09-27T11:45:41.190Z,0.60
2022-09-27T11:48:31.058Z,0.50
2022-09-27T11:51:24.117Z,0.60
2022-09-27T11:54:17.876Z,0.77
2022-09-27T11:57:00.701Z,0.98
2022-09-27T11:59:38.691Z,0.68
2022-09-27T12:02:58.819Z,0.50
2022-09-27T12:05:39.759Z,0.88
2022-09-27T12:08:30.451Z,0.57
2022-09-27T12:11:20.055Z,0.50
2022-09-27T12:13:57.010Z,0.75
2022-09-27T12:16:25.627Z,1.15
2022-09-27T12:18:53.359Z,1.60
2022-09-27T12:21:21.333Z,0.73
2022-09-27T12:23:55.395Z,0.80
2022-09-27T12:26:37.555Z,1.00
2022-09-27T12:29:14.234Z,0.70
2022-09-27T12:32:08.862Z,0.80
2022-09-27T12:34:42.481Z,0.65
2022-09-27T12:37:20.931Z,0.80
2022-09-27T12:39:57.406Z,0.68
2022-09-27T12:42:29.021Z,0.60
2022-09-27T12:44:56.393Z,0.70
2022-09-27T12:47:38.621Z,1.13
2022-09-27T12:50:20.004Z,0.70
2022-09-27T12:52:52.970Z,0.80
2022-09-27T12:55:38.887Z,0.60
2022-09-27T12:58:14.649Z,0.70
2022-09-27T13:00:47.191Z,0.70
2022-09-27T13:03:32.606Z,0.80
2022-09-27T13:06:05.073Z,0.68
2022-09-27T13:08:53.884Z,0.70
2022-09-27T13:11:26.397Z,1.10
2022-09-27T13:13:58.179Z,0.60
2022-09-27T13:16:25.788Z,1.02
2022-09-27T13:19:01.662Z,0.75
2022-09-27T13:21:49.330Z,0.73
2022-09-27T13:24:40.014Z,0.70
2022-09-27T13:27:28.593Z,0.73
2022-09-27T13:30:16.305Z,0.50
2022-09-27T13:33:08.556Z,0.65
2022-09-27T13:35:35.378Z,1.20
2022-09-27T13:38:02.866Z,0.90
2022-09-27T13:40:36.343Z,0.85
2022-09-27T13:43:13.307Z,0.77
2022-09-27T13:45:51.131Z,0.80
2022-09-27T13:48:37.896Z,0.80
2022-09-27T13:51:09.787Z,0.73
2022-09-27T13:53:40.655Z,0.80
2022-09-27T13:56:48.224Z,0.50
2022-09-27T13:59:27.866Z,0.80
2022-09-27T14:02:08.701Z,0.70
2022-09-27T14:04:51.463Z,0.70
2022-09-27T14:07:40.626Z,0.65
2022-09-27T14:10:14.151Z,1.00
2022-09-27T14:12:42.518Z,0.60
2022-09-27T14:15:19.202Z,2.13
2022-09-27T14:17:46.017Z,0.90
2022-09-27T14:20:36.726Z,1.63
2022-09-27T14:23:04.509Z,1.13
2022-09-27T14:25:31.221Z,1.40
2022-09-27T14:28:00.735Z,0.80
2022-09-27T14:30:29.481Z,0.65
2022-09-27T14:33:01.591Z,0.95
2022-09-27T14:35:48.619Z,0.80
2022-09-27T14:38:37.032Z,0.90
2022-09-27T14:43:36.169Z,1.00
2022-09-27T14:46:06.963Z,1.27
2022-09-27T14:48:35.724Z,0.70
2022-09-27T14:51:20.661Z,1.10
2022-09-27T14:53:56.950Z,0.90
2022-09-27T14:56:31.785Z,1.30
2022-09-27T14:59:03.006Z,1.05
2022-09-27T15:01:30.323Z,0.90
2022-09-27T15:04:08.543Z,0.93
2022-09-27T15:06:36.831Z,1.50
2022-09-27T15:09:05.013Z,1.10
2022-09-27T15:11:33.193Z,1.00
2022-09-27T15:14:02.000Z,1.10
2022-09-27T15:16:31.093Z,1.10
2022-09-27T15:19:15.569Z,0.90
2022-09-27T15:21:42.210Z,1.15
2022-09-27T15:24:38.517Z,1.15
2022-09-27T15:27:18.057Z,1.40
2022-09-27T15:29:51.365Z,1.15
2022-09-27T15:32:21.706Z,1.50
2022-09-27T15:34:48.696Z,1.15
2022-09-27T15:37:36.964Z,1.20
2022-09-27T15:40:19.640Z,1.20
2022-09-27T15:42:57.784Z,0.77
2022-09-27T15:45:29.440Z,0.95
2022-09-27T15:47:56.082Z,0.90
2022-09-27T15:50:25.586Z,1.63
2022-09-27T15:52:57.130Z,20.63
2022-09-27T15:55:26.904Z,5.53
2022-09-27T16:00:29.774Z,1.30
2022-09-27T16:02:56.783Z,0.95
2022-09-27T16:05:24.294Z,1.42
2022-09-27T16:07:51.398Z,1.20
2022-09-27T16:10:22.443Z,1.40
2022-09-27T16:12:50.802Z,1.48
2022-09-27T16:15:17.618Z,1.42
2022-09-27T16:17:44.512Z,1.77
2022-09-27T16:20:18.504Z,2.10
2022-09-27T16:22:45.773Z,2.03
2022-09-27T16:25:12.724Z,1.58
2022-09-27T16:27:39.409Z,1.60
2022-09-27T16:30:06.761Z,1.65
2022-09-27T16:32:34.080Z,1.27
2022-09-27T16:35:00.639Z,1.00
2022-09-27T16:37:27.898Z,1.40
2022-09-27T16:39:54.488Z,1.42
2022-09-27T16:42:21.121Z,1.33
2022-09-27T16:44:49.092Z,1.35
2022-09-27T16:47:15.775Z,1.40
2022-09-27T16:50:01.157Z,1.25
2022-09-27T16:52:34.014Z,1.10
2022-09-27T16:55:00.689Z,1.38
2022-09-27T16:57:33.486Z,1.50
2022-09-27T17:00:04.991Z,1.38
2022-09-27T17:02:32.584Z,1.45
2022-09-27T17:04:59.185Z,1.38
2022-09-27T17:07:25.823Z,1.60
2022-09-27T17:09:52.433Z,1.10
2022-09-27T17:12:19.707Z,1.17
2022-09-27T17:14:46.331Z,1.38
2022-09-27T17:17:12.998Z,1.52
2022-09-27T17:19:39.604Z,1.20
2022-09-27T17:22:09.024Z,1.67
2022-09-27T17:24:35.871Z,1.75
2022-09-27T17:27:03.305Z,1.98
2022-09-27T17:29:31.001Z,1.88
2022-09-27T17:31:57.626Z,2.08
2022-09-27T17:34:24.258Z,2.30
2022-09-27T17:36:51.813Z,2.08
2022-09-27T17:39:21.181Z,2.22
2022-09-27T17:41:51.204Z,2.67
2022-09-27T17:44:18.642Z,2.55
2022-09-27T17:46:46.612Z,2.15
2022-09-27T17:49:32.451Z,2.85
2022-09-27T17:51:59.304Z,2.65
2022-09-27T17:54:27.962Z,2.50
2022-09-27T17:56:56.179Z,2.83
2022-09-27T17:59:23.007Z,2.85
2022-09-27T18:01:49.959Z,2.20
2022-09-27T18:04:19.564Z,3.00
2022-09-27T18:06:47.456Z,2.65
2022-09-27T18:09:16.535Z,3.03
2022-09-27T18:11:44.198Z,5.13
2022-09-27T18:14:11.041Z,4.93
2022-09-27T18:16:42.893Z,5.15
2022-09-27T18:19:13.055Z,6.97
2022-09-27T18:21:39.750Z,6.10
2022-09-27T18:24:07.175Z,4.78
2022-09-27T18:26:36.720Z,4.78
2022-09-27T18:29:06.551Z,9.63
2022-09-27T18:33:59.995Z,6.03
2022-09-27T18:36:27.452Z,6.93
2022-09-27T18:39:03.107Z,5.30
2022-09-27T18:41:32.399Z,10.90
2022-09-27T18:44:01.816Z,10.48
2022-09-27T18:46:35.606Z,5.75
2022-09-27T18:49:08.118Z,3.42
2022-09-27T18:51:37.696Z,4.57
2022-09-27T18:56:39.606Z,3.70
2022-09-27T18:59:10.414Z,4.25
2022-09-27T19:01:39.830Z,4.00
2022-09-27T19:04:08.109Z,3.40
2022-09-27T19:06:35.948Z,3.80
2022-09-27T19:09:03.876Z,4.28
2022-09-27T19:11:30.651Z,5.10
2022-09-27T19:13:58.640Z,5.78
2022-09-27T19:16:26.886Z,5.03
2022-09-27T19:18:54.154Z,4.70
2022-09-27T19:21:26.227Z,6.00
2022-09-27T19:23:53.658Z,6.00
2022-09-27T19:26:22.922Z,6.97
2022-09-27T19:28:50.410Z,4.97
2022-09-27T19:31:23.010Z,5.00
2022-09-27T19:33:49.730Z,4.53
2022-09-27T19:36:18.175Z,4.15
2022-09-27T19:38:45.638Z,3.42
2022-09-27T19:41:14.727Z,3.80
2022-09-27T19:43:43.819Z,4.40
2022-09-27T19:46:15.658Z,4.03
2022-09-27T19:48:43.514Z,4.03
2022-09-27T19:51:15.371Z,2.95
2022-09-27T19:53:42.435Z,3.20
2022-09-27T19:56:10.573Z,3.03
2022-09-27T19:58:39.416Z,3.97
2022-09-27T20:01:12.363Z,3.50
2022-09-27T20:03:41.802Z,3.25
2022-09-27T20:06:11.206Z,3.67
2022-09-27T20:08:38.273Z,3.60
2022-09-27T20:11:10.766Z,3.58
2022-09-27T20:13:38.288Z,3.67
2022-09-27T20:16:09.797Z,3.38
2022-09-27T20:18:47.982Z,4.15
2022-09-27T20:21:16.296Z,3.72
2022-09-27T20:23:43.275Z,3.75
2022-09-27T20:26:13.081Z,3.53
2022-09-27T20:31:08.753Z,3.63
2022-09-27T20:33:41.120Z,3.50
2022-09-27T20:36:09.754Z,4.00
2022-09-27T20:38:36.392Z,4.90
2022-09-27T20:41:03.879Z,5.30
2022-09-27T20:43:31.534Z,5.40
2022-09-27T20:46:10.936Z,4.78
2022-09-27T20:48:38.376Z,6.00
2022-09-27T20:51:05.306Z,5.50
2022-09-27T20:53:33.023Z,4.60
2022-09-27T20:56:03.726Z,5.40
2022-09-27T20:58:32.144Z,5.82
2022-09-27T21:01:05.776Z,5.63
2022-09-27T21:03:32.710Z,4.68
2022-09-27T21:05:59.563Z,4.68
2022-09-27T21:08:29.699Z,5.15
2022-09-27T21:11:03.055Z,4.47
2022-09-27T21:13:29.688Z,5.22
2022-09-27T21:16:00.872Z,4.15
2022-09-27T21:18:27.571Z,3.83
2022-09-27T21:21:01.891Z,4.25
2022-09-27T21:23:32.133Z,4.82
2022-09-27T21:26:16.088Z,4.25
2022-09-27T21:28:45.258Z,4.40
2022-09-27T21:31:26.283Z,4.75
2022-09-27T21:33:55.333Z,3.95
2022-09-27T21:36:27.357Z,4.20
2022-09-27T21:38:54.957Z,4.32
2022-09-27T21:41:21.852Z,3.83
2022-09-27T21:43:49.261Z,4.60
2022-09-27T21:46:17.509Z,3.78
2022-09-27T21:48:46.754Z,3.53
2022-09-27T21:51:16.435Z,3.47
2022-09-27T21:53:49.137Z,3.92
2022-09-27T21:56:15.712Z,3.78
2022-09-27T21:58:42.609Z,4.05
2022-09-27T22:01:30.756Z,3.30
2022-09-27T22:03:58.509Z,4.07
2022-09-27T22:06:27.769Z,3.53
2022-09-27T22:08:55.681Z,3.58
2022-09-27T22:11:49.742Z,3.42
2022-09-27T22:14:20.184Z,3.92
2022-09-27T22:16:47.428Z,3.17
2022-09-27T22:19:15.626Z,3.58
2022-09-27T22:21:42.914Z,3.97
2022-09-27T22:24:15.355Z,3.85
2022-09-27T22:26:46.480Z,4.40
2022-09-27T22:29:13.117Z,4.28
2022-09-27T22:31:39.756Z,4.13
2022-09-27T22:34:10.689Z,4.47
2022-09-27T22:36:37.638Z,4.03
2022-09-27T22:39:04.268Z,3.83
2022-09-27T22:41:31.833Z,4.18
2022-09-27T22:43:58.518Z,4.70
2022-09-27T22:46:25.401Z,4.50
2022-09-27T22:48:52.275Z,4.35
2022-09-27T22:51:19.218Z,3.83
2022-09-27T22:53:45.851Z,4.70
2022-09-27T22:56:18.248Z,4.90
2022-09-27T22:58:47.212Z,5.07
2022-09-27T23:01:22.576Z,4.53
2022-09-27T23:03:50.379Z,3.92
2022-09-27T23:06:18.567Z,4.50
2022-09-27T23:08:45.543Z,4.03
2022-09-27T23:11:14.797Z,4.68
2022-09-27T23:13:42.862Z,5.15
2022-09-27T23:16:12.208Z,5.10
2022-09-27T23:18:39.566Z,5.20
2022-09-27T23:21:08.343Z,5.20
2022-09-27T23:23:37.350Z,6.10
2022-09-27T23:26:06.761Z,5.47
2022-09-27T23:28:34.222Z,5.63
2022-09-27T23:31:08.622Z,6.50
2022-09-27T23:33:40.646Z,7.43
2022-09-27T23:36:10.312Z,7.15
2022-09-27T23:38:38.763Z,7.25
2022-09-27T23:41:08.089Z,6.88
2022-09-27T23:43:35.335Z,8.25
2022-09-27T23:46:06.295Z,8.27
2022-09-27T23:48:36.702Z,8.70
2022-09-27T23:51:05.782Z,9.23
2022-09-27T23:53:32.430Z,9.88
2022-09-27T23:56:12.170Z,10.05
